Time;durP1;ratioP1;P1;durP2;ratioP2;P2;SDS_P1;SDS_P2;PMS_P1;PMS_P2;Temp;Humidity;BMP_temperature;BMP_pressure;BME280_temperature;BME280_humidity;BME280_pressure;Samples;Min_cycle;Max_cycle;Signal;HPM_P1;HPM_P2
2023/04/10 00:02:19;;;;;;;6.38;5.20;;;11.30;99.90;;;;;;5055002;28;20021;-35
2023/04/10 00:04:45;;;;;;;6.32;4.90;;;11.30;99.90;;;;;;5055599;28;20390;-36
2023/04/10 00:07:11;;;;;;;7.80;5.32;;;11.30;99.90;;;;;;5054343;28;20538;-35
2023/04/10 00:09:37;;;;;;;6.93;5.13;;;11.30;99.90;;;;;;5054525;28;20020;-36
2023/04/10 00:12:03;;;;;;;8.45;5.45;;;11.30;99.90;;;;;;5053794;28;20498;-36
2023/04/10 00:14:29;;;;;;;7.28;5.40;;;11.30;99.90;;;;;;5053159;28;20021;-35
2023/04/10 00:16:54;;;;;;;8.13;5.40;;;11.30;99.90;;;;;;5054099;28;20032;-35
2023/04/10 00:19:20;;;;;;;5.85;4.95;;;11.30;99.90;;;;;;5054128;28;20391;-35
2023/04/10 00:21:46;;;;;;;6.97;4.95;;;11.30;99.90;;;;;;5054942;28;20113;-36
2023/04/10 00:24:12;;;;;;;6.22;5.10;;;11.30;99.90;;;;;;5054251;28;20104;-35
2023/04/10 00:26:37;;;;;;;6.90;5.13;;;11.30;99.90;;;;;;5052896;28;20067;-36
2023/04/10 00:29:03;;;;;;;7.88;5.32;;;11.30;99.90;;;;;;5054424;28;20077;-34
2023/04/10 00:31:30;;;;;;;7.57;5.03;;;11.30;99.90;;;;;;5054254;28;20035;-36
2023/04/10 00:33:56;;;;;;;7.20;4.88;;;11.20;99.90;;;;;;5054653;28;20566;-36
2023/04/10 00:36:22;;;;;;;6.93;5.25;;;11.30;99.90;;;;;;5053577;28;20036;-34
2023/04/10 00:38:49;;;;;;;7.78;5.30;;;11.20;99.90;;;;;;5053523;28;20021;-34
2023/04/10 00:41:15;;;;;;;7.00;5.25;;;11.20;99.90;;;;;;5054215;28;20029;-36
2023/04/10 00:43:41;;;;;;;6.53;5.63;;;11.30;99.90;;;;;;5054365;28;20068;-36
2023/04/10 00:46:07;;;;;;;6.50;5.15;;;11.30;99.90;;;;;;5053012;28;20422;-35
2023/04/10 00:48:33;;;;;;;7.28;5.22;;;11.20;99.90;;;;;;5054358;28;20475;-37
2023/04/10 00:51:00;;;;;;;6.80;5.30;;;11.20;99.90;;;;;;5054306;28;20101;-38
2023/04/10 00:53:27;;;;;;;6.38;5.15;;;11.30;99.90;;;;;;5053459;28;20049;-35
2023/04/10 00:55:54;;;;;;;7.05;5.50;;;11.20;99.90;;;;;;5053307;28;20021;-35
2023/04/10 00:58:19;;;;;;;6.53;5.03;;;11.20;99.90;;;;;;5054405;28;20405;-34
2023/04/10 01:00:47;;;;;;;7.20;5.22;;;11.20;99.90;;;;;;5054152;28;20112;-38
2023/04/10 01:03:17;;;;;;;6.25;5.22;;;11.30;99.90;;;;;;5053671;28;20037;-34
2023/04/10 01:06:10;;;;;;;6.00;4.97;;;11.20;99.90;;;;;;5053926;28;20039;-37
2023/04/10 01:08:54;;;;;;;7.13;5.57;;;11.20;99.90;;;;;;5052667;28;20032;-35
2023/04/10 01:11:37;;;;;;;5.93;4.90;;;11.20;99.90;;;;;;5053468;28;20029;-35
2023/04/10 01:14:26;;;;;;;8.60;4.70;;;11.20;99.90;;;;;;5053260;28;20036;-35
2023/04/10 01:17:14;;;;;;;6.70;4.97;;;11.20;99.90;;;;;;5052924;28;20368;-37
2023/04/10 01:20:01;;;;;;;7.53;4.90;;;11.20;99.90;;;;;;5053808;28;20013;-34
2023/04/10 01:22:49;;;;;;;6.40;4.88;;;11.20;99.90;;;;;;5054243;28;20053;-34
2023/04/10 01:25:40;;;;;;;6.80;5.57;;;11.20;99.90;;;;;;5052663;28;20037;-35
2023/04/10 01:28:18;;;;;;;5.72;4.82;;;11.20;99.90;;;;;;5052793;28;20108;-36
2023/04/10 01:30:46;;;;;;;6.82;5.38;;;11.20;99.90;;;;;;5052112;28;20063;-34
2023/04/10 01:33:16;;;;;;;7.68;5.05;;;11.20;99.90;;;;;;5052527;28;20025;-34
2023/04/10 01:35:45;;;;;;;8.90;5.20;;;11.20;99.90;;;;;;5053268;28;20024;-35
2023/04/10 01:38:12;;;;;;;6.93;5.50;;;11.20;99.90;;;;;;5053676;28;20025;-36
2023/04/10 01:40:41;;;;;;;5.80;5.03;;;11.10;99.90;;;;;;5052335;28;20033;-35
2023/04/10 01:43:10;;;;;;;6.32;4.90;;;11.10;99.90;;;;;;5051909;28;20384;-36
2023/04/10 01:45:37;;;;;;;6.63;5.47;;;11.10;99.90;;;;;;5051664;28;20116;-35
2023/04/10 01:48:03;;;;;;;7.78;5.47;;;11.10;99.90;;;;;;5051307;28;20111;-34
2023/04/10 01:50:30;;;;;;;6.18;5.00;;;11.20;99.90;;;;;;5051568;28;20542;-36
2023/04/10 01:52:58;;;;;;;7.32;5.03;;;11.10;99.90;;;;;;5051661;28;20483;-35
2023/04/10 01:55:24;;;;;;;6.43;5.05;;;11.10;99.90;;;;;;5052889;28;20033;-37
2023/04/10 01:57:50;;;;;;;6.97;5.00;;;11.20;99.90;;;;;;5052458;28;20020;-35
2023/04/10 02:00:16;;;;;;;6.40;5.13;;;11.10;99.90;;;;;;5051751;28;20029;-34
2023/04/10 02:02:42;;;;;;;6.20;4.90;;;11.10;99.90;;;;;;5051643;28;20029;-34
2023/04/10 02:05:12;;;;;;;6.28;5.13;;;11.10;99.90;;;;;;5051253;28;20033;-35
2023/04/10 02:07:54;;;;;;;6.75;5.00;;;11.10;99.90;;;;;;5052183;28;20029;-36
2023/04/10 02:10:50;;;;;;;7.28;5.20;;;11.10;99.90;;;;;;5051743;28;20021;-36
2023/04/10 02:13:20;;;;;;;5.97;5.03;;;11.10;99.90;;;;;;5053064;28;20033;-36
2023/04/10 02:15:46;;;;;;;7.72;5.03;;;11.10;99.90;;;;;;5051566;28;20100;-38
2023/04/10 02:18:15;;;;;;;6.90;5.10;;;11.10;99.90;;;;;;5050973;28;20028;-35
2023/04/10 02:20:41;;;;;;;7.30;5.40;;;11.10;99.90;;;;;;5052135;28;20552;-36
2023/04/10 02:23:07;;;;;;;6.32;5.25;;;11.10;99.90;;;;;;5052441;28;20117;-35
2023/04/10 02:25:34;;;;;;;6.63;4.85;;;11.10;99.90;;;;;;5052061;28;20028;-38
2023/04/10 02:28:04;;;;;;;7.15;5.18;;;11.10;99.90;;;;;;5051815;28;20033;-35
2023/04/10 02:30:29;;;;;;;7.03;5.10;;;11.10;99.90;;;;;;5052742;28;20029;-35
2023/04/10 02:32:55;;;;;;;5.90;4.90;;;11.10;99.90;;;;;;5052320;28;20517;-35
2023/04/10 02:35:21;;;;;;;7.03;5.40;;;11.00;99.90;;;;;;5052341;28;20035;-36
2023/04/10 02:37:46;;;;;;;6.35;5.47;;;11.10;99.90;;;;;;5049884;28;20024;-35
2023/04/10 02:40:12;;;;;;;6.82;5.32;;;11.00;99.90;;;;;;5051674;28;20055;-37
2023/04/10 02:42:38;;;;;;;6.30;5.35;;;11.10;99.90;;;;;;5051938;28;20142;-35
2023/04/10 02:45:05;;;;;;;6.68;4.80;;;11.10;99.90;;;;;;5050893;28;20033;-36
2023/04/10 02:47:31;;;;;;;5.88;5.10;;;11.10;99.90;;;;;;5051777;28;20033;-36
2023/04/10 02:49:56;;;;;;;6.90;5.00;;;11.10;99.90;;;;;;5050846;28;20379;-35
2023/04/10 02:52:22;;;;;;;5.88;4.78;;;11.10;99.90;;;;;;5051791;28;20032;-37
2023/04/10 02:54:47;;;;;;;6.75;4.97;;;11.00;99.90;;;;;;5051522;28;20083;-36
2023/04/10 02:57:13;;;;;;;6.75;5.30;;;11.00;99.90;;;;;;5050814;28;20036;-35
2023/04/10 02:59:38;;;;;;;6.80;5.20;;;11.00;99.90;;;;;;5052417;28;20033;-34
2023/04/10 03:02:04;;;;;;;6.20;4.95;;;11.00;99.90;;;;;;5051231;28;20483;-36
2023/04/10 03:04:33;;;;;;;6.55;5.05;;;11.00;99.90;;;;;;5051993;28;20086;-36
2023/04/10 03:06:58;;;;;;;7.03;5.35;;;11.00;99.90;;;;;;5049218;28;20064;-34
2023/04/10 03:09:25;;;;;;;5.80;5.00;;;11.00;99.90;;;;;;5050622;28;20053;-37
2023/04/10 03:11:50;;;;;;;6.30;4.90;;;11.00;99.90;;;;;;5052119;28;20108;-37
2023/04/10 03:14:16;;;;;;;5.57;4.80;;;11.00;99.90;;;;;;5052147;28;20472;-36
2023/04/10 03:16:42;;;;;;;6.20;4.85;;;11.00;99.90;;;;;;5051145;28;20028;-34
2023/04/10 03:19:08;;;;;;;5.57;4.57;;;11.00;99.90;;;;;;5051312;28;20021;-37
2023/04/10 03:21:33;;;;;;;6.88;5.10;;;11.00;99.90;;;;;;5051244;28;20368;-34
2023/04/10 03:23:59;;;;;;;5.88;4.70;;;11.00;99.90;;;;;;5052100;28;20064;-35
2023/04/10 03:26:26;;;;;;;5.68;5.07;;;11.00;99.90;;;;;;5051694;28;20029;-36
2023/04/10 03:28:52;;;;;;;5.90;5.13;;;11.00;99.90;;;;;;5050938;28;20017;-37
2023/04/10 03:31:17;;;;;;;6.60;5.10;;;11.00;99.90;;;;;;5051369;28;20100;-34
2023/04/10 03:33:43;;;;;;;6.40;5.13;;;10.90;99.90;;;;;;5051956;28;20025;-37
2023/04/10 03:36:10;;;;;;;5.85;5.03;;;11.00;99.90;;;;;;5050793;28;20032;-36
2023/04/10 03:38:35;;;;;;;5.68;4.72;;;10.90;99.90;;;;;;5051101;28;20021;-37
2023/04/10 03:41:01;;;;;;;6.57;5.15;;;10.90;99.90;;;;;;5050565;28;20040;-36
2023/04/10 03:43:28;;;;;;;6.53;5.28;;;10.90;99.90;;;;;;5051120;28;20044;-37
2023/04/10 03:45:54;;;;;;;6.15;5.05;;;10.90;99.90;;;;;;5050378;28;20387;-39
2023/04/10 03:48:20;;;;;;;6.55;5.07;;;10.90;99.90;;;;;;5052019;28;20214;-36
2023/04/10 03:50:45;;;;;;;6.20;5.10;;;10.90;99.90;;;;;;5055550;28;20031;-36
2023/04/10 03:53:11;;;;;;;7.18;5.35;;;10.90;99.90;;;;;;5055239;28;20162;-35
2023/04/10 03:55:37;;;;;;;6.97;5.18;;;10.90;99.90;;;;;;5055233;28;20025;-36
2023/04/10 03:58:03;;;;;;;8.20;4.97;;;10.90;99.90;;;;;;5054769;28;20021;-37
2023/04/10 04:00:29;;;;;;;5.65;4.65;;;10.90;99.90;;;;;;5055077;28;20112;-34
2023/04/10 04:02:55;;;;;;;6.82;5.38;;;10.90;99.90;;;;;;5054430;28;20090;-35
2023/04/10 04:05:21;;;;;;;5.82;5.03;;;10.90;99.90;;;;;;5054352;28;20485;-36
2023/04/10 04:07:46;;;;;;;8.55;5.57;;;10.90;99.90;;;;;;5053449;28;20028;-34
2023/04/10 04:10:12;;;;;;;6.13;4.55;;;10.90;99.90;;;;;;5055248;28;20523;-35
2023/04/10 04:12:38;;;;;;;5.65;4.82;;;10.90;99.90;;;;;;5054601;28;20036;-36
2023/04/10 04:15:04;;;;;;;5.93;5.13;;;10.90;99.90;;;;;;5054692;28;20021;-36
2023/04/10 04:17:29;;;;;;;6.25;4.93;;;10.90;99.90;;;;;;5053037;28;20025;-37
2023/04/10 04:19:55;;;;;;;5.88;4.43;;;10.90;99.90;;;;;;5054707;28;20028;-36
2023/04/10 04:22:21;;;;;;;6.35;5.00;;;10.90;99.90;;;;;;5055042;28;20108;-36
2023/04/10 04:24:46;;;;;;;6.13;4.85;;;10.90;99.90;;;;;;5055006;28;20035;-34
2023/04/10 04:27:12;;;;;;;5.80;5.00;;;10.90;99.90;;;;;;5053535;28;20501;-35
2023/04/10 04:29:37;;;;;;;6.80;4.82;;;10.80;99.90;;;;;;5055185;28;20056;-36
2023/04/10 04:32:03;;;;;;;5.63;4.40;;;10.90;99.90;;;;;;5054719;28;20032;-36
2023/04/10 04:34:29;;;;;;;5.82;4.68;;;10.90;99.90;;;;;;5053671;28;20566;-36
2023/04/10 04:36:54;;;;;;;6.72;4.60;;;10.90;99.90;;;;;;5053869;28;20025;-35
2023/04/10 04:39:22;;;;;;;6.40;4.90;;;10.80;99.90;;;;;;5053972;28;20502;-39
2023/04/10 04:41:47;;;;;;;6.72;5.18;;;10.80;99.90;;;;;;5054677;28;20025;-35
2023/04/10 04:44:13;;;;;;;8.00;5.05;;;10.80;99.90;;;;;;5054185;28;20032;-37
2023/04/10 04:46:39;;;;;;;5.97;4.68;;;10.80;99.90;;;;;;5053584;28;20108;-35
2023/04/10 04:49:04;;;;;;;5.93;4.53;;;10.80;99.90;;;;;;5054353;28;20049;-36
2023/04/10 04:51:30;;;;;;;5.50;4.65;;;10.80;99.90;;;;;;5054099;28;20502;-36
2023/04/10 04:53:56;;;;;;;6.22;4.82;;;10.80;99.90;;;;;;5053380;28;20024;-34
2023/04/10 04:56:21;;;;;;;7.90;4.85;;;10.80;99.90;;;;;;5052827;28;20035;-36
2023/04/10 04:58:47;;;;;;;6.72;4.95;;;10.80;99.90;;;;;;5053528;28;20036;-35
2023/04/10 05:01:12;;;;;;;6.88;4.80;;;10.80;99.90;;;;;;5052701;28;20024;-36
2023/04/10 05:03:38;;;;;;;6.10;4.80;;;10.80;99.90;;;;;;5053928;28;20120;-36
2023/04/10 05:06:04;;;;;;;6.15;4.95;;;10.80;99.90;;;;;;5053052;28;20036;-37
2023/04/10 05:08:29;;;;;;;5.78;4.60;;;10.80;99.90;;;;;;5052777;28;20040;-36
2023/04/10 05:10:55;;;;;;;6.18;4.60;;;10.80;99.90;;;;;;5052523;28;20024;-38
2023/04/10 05:13:20;;;;;;;6.15;5.00;;;10.80;99.90;;;;;;5053855;28;20024;-36
2023/04/10 05:15:47;;;;;;;6.70;5.18;;;10.80;99.90;;;;;;5054047;28;20029;-36
2023/04/10 05:18:13;;;;;;;6.25;5.15;;;10.80;99.90;;;;;;5052330;28;20036;-35
2023/04/10 05:20:39;;;;;;;5.35;4.60;;;10.80;99.90;;;;;;5052295;28;20033;-34
2023/04/10 05:23:06;;;;;;;5.85;4.60;;;10.80;99.90;;;;;;5052233;28;20031;-34
2023/04/10 05:25:31;;;;;;;6.47;4.38;;;10.70;99.90;;;;;;5052139;28;20036;-34
2023/04/10 05:27:58;;;;;;;6.03;4.60;;;10.80;99.90;;;;;;5051736;28;20025;-35
2023/04/10 05:30:24;;;;;;;6.20;4.40;;;10.80;99.90;;;;;;5054965;28;20037;-34
2023/04/10 05:32:49;;;;;;;5.55;4.18;;;10.80;99.90;;;;;;5052885;28;20078;-35
2023/04/10 05:35:15;;;;;;;5.53;4.35;;;10.80;99.90;;;;;;5053481;28;20453;-37
2023/04/10 05:37:41;;;;;;;5.35;4.07;;;10.80;99.90;;;;;;5054230;28;20029;-36
2023/04/10 05:40:07;;;;;;;5.68;4.95;;;10.80;99.90;;;;;;5051970;28;20044;-36
2023/04/10 05:42:32;;;;;;;5.50;4.88;;;10.80;99.90;;;;;;5052260;28;20035;-35
2023/04/10 05:44:58;;;;;;;6.40;5.07;;;10.70;99.90;;;;;;5051829;28;20029;-36
2023/04/10 05:47:24;;;;;;;6.70;5.20;;;10.80;99.90;;;;;;5052507;28;20361;-37
2023/04/10 05:49:49;;;;;;;6.28;4.53;;;10.80;99.90;;;;;;5054631;28;20017;-37
2023/04/10 05:52:15;;;;;;;5.60;4.45;;;10.80;99.90;;;;;;5054301;28;20032;-35
2023/04/10 05:54:41;;;;;;;6.82;5.00;;;10.80;99.90;;;;;;5054103;28;20021;-36
2023/04/10 05:57:06;;;;;;;6.63;5.28;;;10.80;99.90;;;;;;5052151;28;20057;-37
2023/04/10 05:59:32;;;;;;;6.68;4.90;;;10.80;99.90;;;;;;5051586;28;20065;-34
2023/04/10 06:01:57;;;;;;;7.05;4.85;;;10.80;99.90;;;;;;5052160;28;20373;-35
2023/04/10 06:04:23;;;;;;;5.32;4.32;;;10.80;99.90;;;;;;5053649;28;20075;-36
2023/04/10 06:06:48;;;;;;;7.55;5.03;;;10.80;99.90;;;;;;5053598;28;20032;-36
2023/04/10 06:09:14;;;;;;;5.90;4.43;;;10.70;99.90;;;;;;5054575;28;20499;-34
2023/04/10 06:11:40;;;;;;;5.53;4.63;;;10.70;99.90;;;;;;5052044;28;20104;-35
2023/04/10 06:14:05;;;;;;;5.40;4.25;;;10.70;99.90;;;;;;5051452;28;20028;-36
2023/04/10 06:16:31;;;;;;;5.05;4.32;;;10.70;99.90;;;;;;5052935;28;20454;-35
2023/04/10 06:18:57;;;;;;;5.55;4.35;;;10.70;99.90;;;;;;5051226;28;20033;-36
2023/04/10 06:21:23;;;;;;;5.05;4.28;;;10.70;99.90;;;;;;5053253;28;20136;-36
2023/04/10 06:23:49;;;;;;;7.45;5.60;;;10.70;99.90;;;;;;5051156;28;20116;-37
2023/04/10 06:26:15;;;;;;;7.50;5.18;;;10.70;99.90;;;;;;5050566;28;20261;-34
2023/04/10 06:28:41;;;;;;;6.70;5.18;;;10.80;99.90;;;;;;5051668;28;20040;-34
2023/04/10 06:31:07;;;;;;;6.63;5.03;;;10.70;99.90;;;;;;5051925;28;20025;-35
2023/04/10 06:33:35;;;;;;;8.20;5.60;;;10.70;99.90;;;;;;5051472;28;20052;-36
2023/04/10 06:36:01;;;;;;;6.38;5.07;;;10.70;99.90;;;;;;5050547;28;20604;-36
2023/04/10 06:38:27;;;;;;;6.45;5.13;;;10.70;99.90;;;;;;5052329;28;20060;-35
2023/04/10 06:40:52;;;;;;;6.22;4.68;;;10.80;99.90;;;;;;5051805;28;20033;-36
2023/04/10 06:43:18;;;;;;;6.85;4.90;;;10.70;99.90;;;;;;5052775;28;20398;-36
2023/04/10 06:45:44;;;;;;;6.35;5.03;;;10.80;99.90;;;;;;5050529;28;20021;-35
2023/04/10 06:48:10;;;;;;;5.63;4.57;;;10.80;99.90;;;;;;5051478;28;20028;-35
2023/04/10 06:50:36;;;;;;;6.57;5.25;;;10.80;99.90;;;;;;5051056;28;20027;-36
2023/04/10 06:53:02;;;;;;;6.60;4.68;;;10.80;99.90;;;;;;5051948;28;20037;-36
2023/04/10 06:55:28;;;;;;;6.15;4.85;;;10.80;99.90;;;;;;5051701;28;20044;-35
2023/04/10 06:57:55;;;;;;;9.30;5.18;;;10.80;99.90;;;;;;5051030;28;20467;-37
2023/04/10 07:00:22;;;;;;;6.10;4.97;;;10.80;99.90;;;;;;5053147;28;20033;-35
2023/04/10 07:02:48;;;;;;;6.25;4.90;;;10.80;99.90;;;;;;5052636;28;20469;-38
2023/04/10 07:05:15;;;;;;;5.97;4.75;;;10.90;99.90;;;;;;5051769;28;20128;-37
2023/04/10 07:07:41;;;;;;;6.70;4.65;;;10.90;99.90;;;;;;5050778;28;20048;-34
2023/04/10 07:10:07;;;;;;;5.65;4.50;;;10.90;99.90;;;;;;5051120;28;20021;-34
2023/04/10 07:12:33;;;;;;;5.93;4.45;;;10.90;99.90;;;;;;5052477;28;20573;-36
2023/04/10 07:14:58;;;;;;;6.38;4.80;;;10.90;99.90;;;;;;5052114;28;20053;-35
2023/04/10 07:17:24;;;;;;;6.28;4.90;;;10.90;99.90;;;;;;5050496;28;20028;-36
2023/04/10 07:19:50;;;;;;;5.20;4.32;;;10.90;99.90;;;;;;5050876;28;20391;-35
2023/04/10 07:22:15;;;;;;;5.65;4.45;;;11.00;99.90;;;;;;5051561;28;20033;-35
2023/04/10 07:24:43;;;;;;;5.75;4.53;;;10.90;99.90;;;;;;5054083;28;20040;-34
2023/04/10 07:27:08;;;;;;;5.88;4.55;;;11.00;99.90;;;;;;5053810;28;20514;-35
2023/04/10 07:29:34;;;;;;;6.45;4.38;;;11.00;99.90;;;;;;5056295;28;20057;-36
2023/04/10 07:32:00;;;;;;;4.95;4.05;;;11.00;99.90;;;;;;5055375;28;20025;-35
2023/04/10 07:34:25;;;;;;;5.03;4.10;;;11.00;99.90;;;;;;5056404;28;20048;-37
2023/04/10 07:36:51;;;;;;;5.07;4.20;;;11.00;99.90;;;;;;5054444;28;20025;-34
2023/04/10 07:39:17;;;;;;;5.88;4.13;;;11.00;99.90;;;;;;5055115;28;20429;-37
2023/04/10 07:41:43;;;;;;;6.03;4.13;;;11.10;99.90;;;;;;5054201;28;20068;-34
2023/04/10 07:44:09;;;;;;;4.90;3.78;;;11.10;99.90;;;;;;5054311;28;20522;-34
2023/04/10 07:46:35;;;;;;;5.75;4.18;;;11.10;99.90;;;;;;5054847;28;20608;-36
2023/04/10 07:49:01;;;;;;;5.07;3.95;;;11.10;99.90;;;;;;5054749;28;20025;-34
2023/04/10 07:51:27;;;;;;;5.22;4.00;;;11.10;99.90;;;;;;5055472;28;20445;-36
2023/04/10 07:53:53;;;;;;;5.15;4.35;;;11.10;99.90;;;;;;5055188;28;20464;-35
2023/04/10 07:56:20;;;;;;;4.95;4.03;;;11.10;99.90;;;;;;5054094;28;20029;-36
2023/04/10 07:58:46;;;;;;;3.85;3.45;;;11.20;99.90;;;;;;5054064;28;20048;-35
2023/04/10 08:01:13;;;;;;;5.00;3.58;;;11.10;99.90;;;;;;5054381;28;20021;-36
2023/04/10 08:03:40;;;;;;;4.25;3.50;;;11.10;99.90;;;;;;5054361;28;20570;-38
2023/04/10 08:06:08;;;;;;;5.00;4.03;;;11.20;99.90;;;;;;5054283;28;20092;-37
2023/04/10 08:08:38;;;;;;;4.70;3.92;;;11.20;99.90;;;;;;5054276;28;20025;-34
2023/04/10 08:11:25;;;;;;;4.90;3.95;;;11.20;99.90;;;;;;5054165;28;20021;-36
2023/04/10 08:13:55;;;;;;;5.18;3.83;;;11.20;99.90;;;;;;5053632;28;20029;-34
2023/04/10 08:16:25;;;;;;;5.03;3.60;;;11.30;99.90;;;;;;5054577;28;20140;-35
2023/04/10 08:18:52;;;;;;;4.25;3.22;;;11.30;99.90;;;;;;5054386;28;20021;-38
2023/04/10 08:21:20;;;;;;;4.63;3.67;;;11.20;99.90;;;;;;5054819;28;20033;-35
2023/04/10 08:23:46;;;;;;;3.95;3.55;;;11.20;99.90;;;;;;5054519;28;20376;-37
2023/04/10 08:26:12;;;;;;;3.83;3.13;;;11.30;99.90;;;;;;5052677;28;20040;-36
2023/04/10 08:28:38;;;;;;;5.13;3.85;;;11.30;99.90;;;;;;5055028;28;20029;-36
2023/04/10 08:31:04;;;;;;;4.50;3.53;;;11.30;99.90;;;;;;5054494;28;20105;-34
2023/04/10 08:33:30;;;;;;;5.35;3.60;;;11.30;99.90;;;;;;5054916;28;20021;-36
2023/04/10 08:35:56;;;;;;;4.78;3.60;;;11.40;99.90;;;;;;5052815;28;20013;-38
2023/04/10 08:38:23;;;;;;;4.05;3.28;;;11.30;99.90;;;;;;5054200;28;20028;-35
2023/04/10 08:40:50;;;;;;;4.55;3.60;;;11.40;99.90;;;;;;5053651;28;20017;-36
2023/04/10 08:43:16;;;;;;;4.40;3.55;;;11.30;99.90;;;;;;5054147;28;20063;-36
2023/04/10 08:45:42;;;;;;;4.18;3.30;;;11.40;99.90;;;;;;5054546;28;20036;-36
2023/04/10 08:48:10;;;;;;;3.67;3.28;;;11.40;99.90;;;;;;5054200;28;20099;-35
2023/04/10 08:50:41;;;;;;;4.18;3.50;;;11.40;99.90;;;;;;5053289;28;20021;-38
2023/04/10 08:53:10;;;;;;;3.65;3.10;;;11.40;99.90;;;;;;5054255;28;20023;-37
2023/04/10 08:55:38;;;;;;;4.28;3.25;;;11.40;99.90;;;;;;5054740;28;20028;-36
2023/04/10 08:58:04;;;;;;;3.53;2.90;;;11.40;99.90;;;;;;5053933;28;20048;-35
2023/04/10 09:00:33;;;;;;;3.40;3.05;;;11.40;99.90;;;;;;5053420;28;20449;-35
2023/04/10 09:02:59;;;;;;;3.25;2.90;;;11.40;99.90;;;;;;5053612;28;20040;-34
2023/04/10 09:05:27;;;;;;;4.40;3.42;;;11.50;99.90;;;;;;5054485;28;20086;-35
2023/04/10 09:07:52;;;;;;;4.28;3.13;;;11.40;99.90;;;;;;5053020;28;20033;-35
2023/04/10 09:10:18;;;;;;;3.80;3.20;;;11.50;99.90;;;;;;5053038;28;20021;-34
2023/04/10 09:12:46;;;;;;;3.75;2.75;;;11.40;99.90;;;;;;5054439;28;20417;-35
2023/04/10 09:15:12;;;;;;;3.80;2.90;;;11.50;99.90;;;;;;5053134;28;20513;-36
2023/04/10 09:18:00;;;;;;;3.55;2.85;;;11.50;99.90;;;;;;5051836;28;20028;-34
2023/04/10 09:20:31;;;;;;;3.42;2.70;;;11.50;99.90;;;;;;5053562;28;20471;-36
2023/04/10 09:22:57;;;;;;;4.05;3.13;;;11.50;99.90;;;;;;5053510;28;20063;-36
2023/04/10 09:25:39;;;;;;;3.25;2.80;;;11.50;99.90;;;;;;5052413;28;20060;-37
2023/04/10 09:28:07;;;;;;;3.00;2.65;;;11.50;99.90;;;;;;5052656;28;20037;-36
2023/04/10 09:30:42;;;;;;;3.72;2.70;;;11.50;99.90;;;;;;5053495;28;20021;-36
2023/04/10 09:33:20;;;;;;;3.15;2.40;;;11.50;99.90;;;;;;5053704;28;20020;-35
2023/04/10 09:35:46;;;;;;;2.90;2.60;;;11.50;99.90;;;;;;5053688;28;20187;-38
2023/04/10 09:38:18;;;;;;;3.70;2.70;;;11.50;99.90;;;;;;5053738;28;20036;-39
2023/04/10 09:40:45;;;;;;;3.55;2.60;;;11.50;99.90;;;;;;5054492;28;20033;-38
2023/04/10 09:43:21;;;;;;;3.53;2.90;;;11.50;99.90;;;;;;5053736;28;20028;-36
2023/04/10 09:45:55;;;;;;;3.85;2.78;;;11.50;99.90;;;;;;5052649;28;20025;-35
2023/04/10 09:48:22;;;;;;;3.60;2.83;;;11.50;99.90;;;;;;5052683;28;20589;-36
2023/04/10 09:50:48;;;;;;;3.35;2.70;;;11.50;99.90;;;;;;5052618;28;20021;-37
2023/04/10 09:53:19;;;;;;;3.47;2.70;;;11.50;99.90;;;;;;5052161;28;20531;-36
2023/04/10 09:55:46;;;;;;;3.88;2.70;;;11.50;99.90;;;;;;5053232;28;20017;-35
2023/04/10 09:58:13;;;;;;;3.70;2.67;;;11.40;99.90;;;;;;5052064;28;20033;-36
2023/04/10 10:00:47;;;;;;;2.78;2.35;;;11.50;99.90;;;;;;5052627;28;20021;-35
2023/04/10 10:03:17;;;;;;;2.37;2.17;;;11.50;99.90;;;;;;5053544;28;20107;-36
2023/04/10 10:05:51;;;;;;;3.10;2.58;;;11.40;99.90;;;;;;5052682;28;20028;-37
2023/04/10 10:08:17;;;;;;;2.83;2.33;;;11.40;99.90;;;;;;5053185;28;20020;-34
2023/04/10 10:10:48;;;;;;;3.33;2.67;;;11.40;99.90;;;;;;5053066;28;20086;-35
2023/04/10 10:13:20;;;;;;;2.97;2.40;;;11.50;99.90;;;;;;5053415;28;20042;-36
2023/04/10 10:16:04;;;;;;;2.90;2.40;;;11.50;99.90;;;;;;5053365;28;20071;-36
2023/04/10 10:18:54;;;;;;;2.83;2.40;;;11.50;99.90;;;;;;5052430;28;20445;-35
2023/04/10 10:21:22;;;;;;;3.47;2.67;;;11.50;99.90;;;;;;5052086;28;20025;-35
2023/04/10 10:23:52;;;;;;;3.35;2.33;;;11.60;99.90;;;;;;5051676;28;20032;-37
2023/04/10 10:26:19;;;;;;;2.67;2.20;;;11.50;99.90;;;;;;5052738;28;20580;-35
2023/04/10 10:28:47;;;;;;;3.33;2.78;;;11.50;99.90;;;;;;5052649;28;20021;-37
2023/04/10 10:31:16;;;;;;;3.33;2.58;;;11.50;99.90;;;;;;5052168;28;20104;-37
2023/04/10 10:33:42;;;;;;;2.55;2.10;;;11.60;99.90;;;;;;5052600;28;20068;-36
2023/04/10 10:36:09;;;;;;;2.63;2.35;;;11.60;99.90;;;;;;5051709;28;20029;-38
2023/04/10 10:38:40;;;;;;;3.50;2.60;;;11.50;99.90;;;;;;5052644;28;20025;-34
2023/04/10 10:41:19;;;;;;;2.60;1.98;;;11.60;99.90;;;;;;5052036;28;20029;-36
2023/04/10 10:44:26;;;;;;;2.97;2.03;;;11.60;99.90;;;;;;5052048;28;20040;-35
2023/04/10 10:47:14;;;;;;;2.67;2.17;;;11.60;99.90;;;;;;5040081;28;20033;-34
2023/04/10 10:50:03;;;;;;;2.65;2.08;;;11.60;99.90;;;;;;5052411;28;20036;-37
2023/04/10 10:52:38;;;;;;;3.28;2.10;;;11.60;99.90;;;;;;5049337;28;20043;-36
2023/04/10 10:55:27;;;;;;;3.92;2.55;;;11.60;99.90;;;;;;5051457;28;20044;-35
2023/04/10 10:57:54;;;;;;;3.42;2.10;;;11.60;99.90;;;;;;5051032;28;20053;-37
2023/04/10 11:00:22;;;;;;;2.92;2.30;;;11.60;99.90;;;;;;5055915;28;20482;-36
2023/04/10 11:03:06;;;;;;;2.90;2.15;;;11.60;99.90;;;;;;5055739;28;20044;-35
2023/04/10 11:05:53;;;;;;;2.40;2.00;;;11.70;99.90;;;;;;5055320;28;20060;-36
2023/04/10 11:08:34;;;;;;;2.38;1.95;;;11.70;99.90;;;;;;5056350;28;20452;-34
2023/04/10 11:11:01;;;;;;;2.92;2.15;;;11.70;99.90;;;;;;5055821;28;20426;-36
2023/04/10 11:13:27;;;;;;;2.05;1.83;;;11.70;99.90;;;;;;5054999;28;20083;-35
2023/04/10 11:15:58;;;;;;;2.15;1.67;;;11.70;99.90;;;;;;5055794;28;20025;-35
2023/04/10 11:18:44;;;;;;;2.20;1.90;;;11.70;99.90;;;;;;5054810;28;20441;-36
2023/04/10 11:21:15;;;;;;;2.80;2.00;;;11.70;99.90;;;;;;5051552;28;20068;-37
2023/04/10 11:24:04;;;;;;;2.58;2.10;;;11.70;99.90;;;;;;5055394;28;20435;-36
2023/04/10 11:26:33;;;;;;;2.20;1.80;;;11.70;99.90;;;;;;5052054;28;20101;-36
2023/04/10 11:29:00;;;;;;;2.80;2.10;;;11.80;99.90;;;;;;5054769;28;20025;-36
2023/04/10 11:31:26;;;;;;;2.58;1.85;;;11.80;99.90;;;;;;5055201;28;20036;-37
2023/04/10 11:34:00;;;;;;;1.90;1.70;;;11.70;99.90;;;;;;5055801;28;20021;-35
2023/04/10 11:36:26;;;;;;;;;;;11.80;99.90;;;;;;5055056;28;20060;-34
2023/04/10 11:38:59;;;;;;;2.25;2.05;;;11.80;99.90;;;;;;5055204;28;19968;-34
2023/04/10 11:41:29;;;;;;;2.20;1.83;;;11.80;99.90;;;;;;5054937;28;20383;-36
2023/04/10 11:43:56;;;;;;;2.45;1.85;;;11.80;99.90;;;;;;5055359;28;20025;-36
2023/04/10 11:46:22;;;;;;;2.08;1.80;;;11.80;99.90;;;;;;5054028;28;20029;-36
2023/04/10 11:48:52;;;;;;;2.10;1.75;;;11.80;99.90;;;;;;5054505;28;20033;-36
2023/04/10 11:51:17;;;;;;;2.83;1.80;;;11.80;99.90;;;;;;5054432;28;20029;-37
2023/04/10 11:53:43;;;;;;;1.85;1.52;;;11.80;99.90;;;;;;5054886;28;20037;-36
2023/04/10 11:56:20;;;;;;;2.25;1.95;;;11.80;99.90;;;;;;5053352;28;20036;-34
2023/04/10 11:58:49;;;;;;;2.17;1.75;;;11.80;99.90;;;;;;5054242;28;20498;-36
2023/04/10 12:01:19;;;;;;;2.17;1.63;;;11.80;99.90;;;;;;5054502;28;20033;-37
2023/04/10 12:03:45;;;;;;;1.95;1.75;;;11.90;99.90;;;;;;5054396;28;20116;-36
2023/04/10 12:06:13;;;;;;;2.58;2.00;;;11.90;99.90;;;;;;5053221;28;20108;-36
2023/04/10 12:08:48;;;;;;;1.73;1.40;;;11.90;99.90;;;;;;5053674;28;20446;-36
2023/04/10 12:11:16;;;;;;;2.25;1.60;;;11.90;99.90;;;;;;5054017;28;20016;-37
2023/04/10 12:13:41;;;;;;;2.33;2.03;;;11.90;99.90;;;;;;5054081;28;20033;-36
2023/04/10 12:16:09;;;;;;;2.00;1.65;;;11.90;99.90;;;;;;5053505;28;20105;-37
2023/04/10 12:18:35;;;;;;;4.05;2.00;;;11.90;99.90;;;;;;5054476;28;20035;-36
2023/04/10 12:21:02;;;;;;;2.33;1.85;;;11.90;99.90;;;;;;5054676;28;20035;-34
2023/04/10 12:23:28;;;;;;;2.35;1.80;;;11.90;99.90;;;;;;5054025;28;20021;-35
2023/04/10 12:26:07;;;;;;;2.22;1.90;;;11.90;99.90;;;;;;5053416;28;20021;-35
2023/04/10 12:28:32;;;;;;;2.70;1.83;;;11.90;99.90;;;;;;5054351;28;20021;-35
2023/04/10 12:30:58;;;;;;;2.05;1.50;;;11.90;99.90;;;;;;5054091;28;20540;-37
2023/04/10 12:33:24;;;;;;;2.10;1.70;;;11.90;99.90;;;;;;5052718;28;20021;-36
2023/04/10 12:35:51;;;;;;;2.83;1.55;;;11.90;99.90;;;;;;5053094;28;20383;-35
2023/04/10 12:38:36;;;;;;;1.80;1.40;;;11.90;99.90;;;;;;5053563;28;20032;-34
2023/04/10 12:41:02;;;;;;;1.98;1.70;;;11.90;99.90;;;;;;5053268;28;20037;-36
2023/04/10 12:43:33;;;;;;;1.85;1.50;;;11.90;99.90;;;;;;5053257;28;20048;-35
2023/04/10 12:45:59;;;;;;;4.32;1.95;;;11.90;99.90;;;;;;5052689;28;20540;-34
2023/04/10 12:48:25;;;;;;;2.42;1.73;;;11.90;99.90;;;;;;5053402;28;20029;-34
2023/04/10 12:50:51;;;;;;;1.73;1.40;;;11.90;99.90;;;;;;5053198;28;20026;-37
2023/04/10 12:53:17;;;;;;;2.42;1.50;;;11.90;99.90;;;;;;5052933;28;20383;-36
2023/04/10 12:56:03;;;;;;;1.92;1.48;;;12.00;99.90;;;;;;5054131;28;20021;-35